Time;durP1;ratioP1;P1;durP2;ratioP2;P2;SDS_P1;SDS_P2;PMS_P1;PMS_P2;Temp;Humidity;BMP_temperature;BMP_pressure;BME280_temperature;BME280_humidity;BME280_pressure;Samples;Min_cycle;Max_cycle;Signal;HPM_P1;HPM_P2
2022/10/13 00:00:42;;;;;;;29.63;12.07;;;;;;;18.56;100.00;101730.13;5008830;28;20277;-50
2022/10/13 00:03:08;;;;;;;26.27;11.87;;;;;;;18.11;100.00;101733.97;5006995;28;20275;-52
2022/10/13 00:05:34;;;;;;;19.53;11.07;;;;;;;18.10;100.00;101729.63;5006993;28;20268;-51
2022/10/13 00:08:00;;;;;;;29.20;10.60;;;;;;;18.18;100.00;101712.25;5014079;28;21087;-54
2022/10/13 00:10:28;;;;;;;33.63;12.07;;;;;;;18.18;100.00;101714.97;5006165;28;20256;-53
2022/10/13 00:12:54;;;;;;;25.60;10.90;;;;;;;18.62;100.00;101715.69;5013215;28;20291;-54
2022/10/13 00:15:21;;;;;;;27.97;11.50;;;;;;;18.25;100.00;101712.19;5007784;28;20050;-50
2022/10/13 00:17:46;;;;;;;29.30;11.38;;;;;;;18.09;100.00;101703.59;5006201;28;20284;-49
2022/10/13 00:20:12;;;;;;;24.43;10.57;;;;;;;18.19;100.00;101703.91;5012170;28;20045;-51
2022/10/13 00:22:37;;;;;;;25.75;13.57;;;;;;;18.40;100.00;101707.19;5013022;28;20058;-53
2022/10/13 00:25:03;;;;;;;35.73;12.87;;;;;;;18.28;100.00;101695.50;5003386;28;20041;-51
2022/10/13 00:27:29;;;;;;;27.52;12.23;;;;;;;18.33;100.00;101699.16;5009110;28;20026;-51
2022/10/13 00:29:54;;;;;;;33.03;13.20;;;;;;;18.31;100.00;101705.88;5010627;28;20069;-52
2022/10/13 00:32:20;;;;;;;27.70;11.55;;;;;;;18.30;100.00;101696.09;5001265;28;20106;-55
2022/10/13 00:34:45;;;;;;;22.70;12.73;;;;;;;18.40;100.00;101693.66;5013763;28;20046;-49
2022/10/13 00:37:11;;;;;;;22.53;10.87;;;;;;;18.17;100.00;101703.28;5013328;28;20039;-50
2022/10/13 00:39:37;;;;;;;26.00;10.65;;;;;;;18.42;100.00;101696.16;5005629;28;20035;-54
2022/10/13 00:42:03;;;;;;;24.60;11.13;;;;;;;18.22;100.00;101696.38;5007468;28;20071;-50
2022/10/13 00:44:51;;;;;;;29.33;12.07;;;;;;;18.10;100.00;101694.44;5006459;28;20102;-49
2022/10/13 00:47:17;;;;;;;21.65;11.75;;;;;;;17.89;100.00;101696.50;5010807;28;20307;-54
2022/10/13 00:49:43;;;;;;;26.00;11.90;;;;;;;17.98;100.00;101696.19;5008065;28;20054;-53
2022/10/13 00:52:09;;;;;;;32.67;12.33;;;;;;;18.10;100.00;101699.00;5006991;28;20311;-53
2022/10/13 00:54:34;;;;;;;26.25;11.48;;;;;;;18.05;100.00;101702.41;4999177;28;20298;-52
2022/10/13 00:57:02;;;;;;;26.43;11.10;;;;;;;18.17;100.00;101700.59;5008016;28;20030;-50
2022/10/13 00:59:28;;;;;;;23.80;11.40;;;;;;;18.02;100.00;101695.56;5002197;28;20038;-51
2022/10/13 01:01:56;;;;;;;29.52;12.55;;;;;;;18.33;100.00;101701.06;5011509;28;20280;-55
2022/10/13 01:04:26;;;;;;;27.57;12.37;;;;;;;17.98;100.00;101701.59;5002922;28;20111;-50
2022/10/13 01:06:53;;;;;;;25.70;11.33;;;;;;;18.19;100.00;101709.31;4999705;28;20281;-49
2022/10/13 01:09:19;;;;;;;;;;;;;;;18.09;100.00;101700.91;5011015;28;20393;-50
2022/10/13 01:12:10;;;;;;;24.03;11.33;;;;;;;18.11;100.00;101701.50;5001797;28;19917;-48
2022/10/13 01:14:48;;;;;;;23.97;12.07;;;;;;;18.52;100.00;101695.63;5013560;28;20035;-52
2022/10/13 01:17:33;;;;;;;26.90;11.50;;;;;;;18.56;100.00;101692.19;5001849;28;20294;-48
2022/10/13 01:20:23;;;;;;;18.40;10.83;;;;;;;18.59;100.00;101690.94;5006153;28;20284;-48
2022/10/13 01:23:04;;;;;;;23.53;11.00;;;;;;;18.92;100.00;101695.09;5007940;28;20260;-51
2022/10/13 01:25:56;;;;;;;26.57;12.40;;;;;;;18.60;100.00;101693.44;5000393;28;20288;-51
2022/10/13 01:28:36;;;;;;;24.20;12.37;;;;;;;18.60;100.00;101689.88;5008123;28;20265;-52
2022/10/13 01:31:29;;;;;;;27.17;10.93;;;;;;;18.62;100.00;101693.19;4984687;28;20289;-52
2022/10/13 01:34:13;;;;;;;21.77;11.53;;;;;;;18.83;100.00;101688.31;5002509;28;20283;-52
2022/10/13 01:36:50;;;;;;;27.10;11.33;;;;;;;18.48;100.00;101687.97;5008437;28;20322;-54
2022/10/13 01:39:28;;;;;;;21.77;11.43;;;;;;;18.76;100.00;101683.81;5000132;28;20272;-52
2022/10/13 01:42:04;;;;;;;26.47;11.37;;;;;;;18.63;100.00;101689.41;5007867;28;20264;-52
2022/10/13 01:44:39;;;;;;;22.50;11.48;;;;;;;18.75;100.00;101684.03;5003107;28;20276;-55
2022/10/13 01:47:07;;;;;;;24.67;11.80;;;;;;;18.71;100.00;101683.69;5002578;28;20042;-54
2022/10/13 01:49:34;;;;;;;22.97;11.77;;;;;;;18.39;100.00;101678.47;5007759;28;20288;-52
2022/10/13 01:52:13;;;;;;;29.17;12.77;;;;;;;18.36;100.00;101678.94;5003572;28;20291;-51
2022/10/13 01:54:39;;;;;;;23.00;12.77;;;;;;;18.42;100.00;101678.00;5010890;28;20051;-53
2022/10/13 01:57:32;;;;;;;24.15;11.82;;;;;;;18.53;100.00;101678.31;5003214;28;20283;-50
2022/10/13 02:00:02;;;;;;;20.63;10.83;;;;;;;18.45;100.00;101674.88;5000217;28;20043;-51
2022/10/13 02:03:08;;;;;;;26.30;11.27;;;;;;;18.69;100.00;101674.97;5001401;28;20273;-53
2022/10/13 02:05:48;;;;;;;22.47;11.87;;;;;;;18.39;100.00;101669.53;5004315;28;20276;-53
2022/10/13 02:08:35;;;;;;;24.03;11.27;;;;;;;18.60;100.00;101663.63;5009095;28;20301;-52
2022/10/13 02:11:15;;;;;;;;;;;;;;;18.47;100.00;101661.94;5033054;28;20264;-53
2022/10/13 02:13:59;;;;;;;21.27;11.33;;;;;;;18.24;100.00;101651.78;5000679;28;19918;-55
2022/10/13 02:16:30;;;;;;;23.00;11.40;;;;;;;18.24;100.00;101646.38;5005321;28;20268;-51
2022/10/13 02:18:57;;;;;;;25.50;11.30;;;;;;;18.31;100.00;101647.09;4999145;28;20309;-53
2022/10/13 02:21:23;;;;;;;20.50;11.23;;;;;;;18.33;100.00;101636.06;5007830;28;20268;-49
2022/10/13 02:23:49;;;;;;;22.20;11.50;;;;;;;18.30;100.00;101641.94;5005273;28;20086;-54
2022/10/13 02:26:18;;;;;;;26.03;11.63;;;;;;;18.39;100.00;101642.47;4997901;28;20273;-54
2022/10/13 02:28:43;;;;;;;24.53;12.13;;;;;;;18.40;100.00;101644.91;5008493;28;20335;-55
2022/10/13 02:31:09;;;;;;;26.55;12.07;;;;;;;18.16;100.00;101639.38;5003305;28;20094;-55
2022/10/13 02:33:35;;;;;;;24.65;10.85;;;;;;;18.27;100.00;101645.09;5002062;28;20034;-55
2022/10/13 02:36:00;;;;;;;28.73;12.27;;;;;;;18.29;100.00;101641.09;5008126;28;20042;-54
2022/10/13 02:38:26;;;;;;;26.85;11.82;;;;;;;18.55;100.00;101638.28;5012594;28;20027;-50
2022/10/13 02:40:53;;;;;;;21.50;11.13;;;;;;;18.77;100.00;101644.84;5000192;28;20039;-50
2022/10/13 02:43:19;;;;;;;26.17;11.23;;;;;;;18.85;100.00;101640.13;5007947;28;20022;-50
2022/10/13 02:45:45;;;;;;;27.73;11.02;;;;;;;18.80;100.00;101637.31;5009100;28;20296;-49
2022/10/13 02:48:11;;;;;;;25.40;12.85;;;;;;;18.83;100.00;101636.84;4999898;28;20066;-51
2022/10/13 02:50:37;;;;;;;30.13;10.90;;;;;;;18.95;100.00;101632.28;5015294;28;20037;-51
2022/10/13 02:53:02;;;;;;;30.42;12.50;;;;;;;19.30;100.00;101626.09;5006418;28;20236;-51
2022/10/13 02:55:28;;;;;;;19.40;11.30;;;;;;;19.20;100.00;101625.88;5005846;28;20072;-51
2022/10/13 02:57:56;;;;;;;24.17;11.10;;;;;;;18.92;100.00;101619.19;5004794;28;20033;-51
2022/10/13 03:00:21;;;;;;;21.48;11.27;;;;;;;19.17;100.00;101621.72;5006168;28;20276;-54
2022/10/13 03:02:47;;;;;;;25.85;12.73;;;;;;;18.75;100.00;101622.56;5023893;28;20031;-49
2022/10/13 03:05:13;;;;;;;26.00;12.15;;;;;;;18.65;100.00;101614.16;5012450;28;20035;-53
2022/10/13 03:07:38;;;;;;;25.75;11.75;;;;;;;18.71;100.00;101604.28;5004933;28;20031;-52
2022/10/13 03:10:04;;;;;;;36.47;12.87;;;;;;;19.16;100.00;101616.56;5013383;28;20038;-50
2022/10/13 03:12:31;;;;;;;29.20;12.50;;;;;;;18.77;100.00;101608.78;5014371;28;20280;-53
2022/10/13 03:14:56;;;;;;;29.08;12.13;;;;;;;18.97;100.00;101616.59;5001523;28;20038;-53
2022/10/13 03:17:22;;;;;;;27.65;12.38;;;;;;;18.58;100.00;101619.69;5014574;28;20545;-55
2022/10/13 03:19:47;;;;;;;28.53;11.93;;;;;;;18.85;100.00;101613.03;5015201;28;20034;-53
2022/10/13 03:22:16;;;;;;;26.47;11.77;;;;;;;18.85;100.00;101613.03;5014828;28;20422;-50
2022/10/13 03:24:42;;;;;;;27.25;12.75;;;;;;;18.66;100.00;101615.81;5014079;28;20268;-52
2022/10/13 03:27:08;;;;;;;22.70;11.93;;;;;;;18.60;100.00;101614.03;5004641;28;20030;-49
2022/10/13 03:29:33;;;;;;;25.05;11.68;;;;;;;18.85;100.00;101605.75;5021334;28;20030;-48
2022/10/13 03:31:59;;;;;;;21.08;11.27;;;;;;;18.55;100.00;101609.28;5009497;28;20078;-50
2022/10/13 03:34:24;;;;;;;26.90;12.43;;;;;;;18.53;100.00;101607.91;5010752;28;20034;-50
2022/10/13 03:36:51;;;;;;;24.83;12.13;;;;;;;18.71;100.00;101593.44;5011981;28;20095;-47
2022/10/13 03:39:16;;;;;;;20.97;10.93;;;;;;;18.70;100.00;101605.34;5010360;28;20277;-54
2022/10/13 03:41:42;;;;;;;25.75;12.05;;;;;;;18.90;100.00;101597.75;5013009;28;20041;-55
2022/10/13 03:44:12;;;;;;;25.98;11.77;;;;;;;18.72;100.00;101603.22;5025407;28;20061;-51
2022/10/13 03:46:38;;;;;;;28.30;13.03;;;;;;;18.78;100.00;101602.28;5011078;28;20042;-49
2022/10/13 03:49:04;;;;;;;26.35;12.07;;;;;;;18.94;100.00;101594.56;5007422;28;20287;-50
2022/10/13 03:51:29;;;;;;;30.63;12.40;;;;;;;18.68;100.00;101594.72;5009160;28;20043;-51
2022/10/13 03:53:55;;;;;;;30.30;12.23;;;;;;;18.82;100.00;101602.66;5009798;28;20050;-49
2022/10/13 03:56:24;;;;;;;29.63;13.40;;;;;;;18.65;100.00;101603.31;5016640;28;20069;-52
2022/10/13 03:58:53;;;;;;;31.27;12.67;;;;;;;18.59;100.00;101598.84;5017531;28;20046;-50
2022/10/13 04:01:21;;;;;;;25.73;11.40;;;;;;;18.61;100.00;101591.31;5006304;28;20272;-52
2022/10/13 04:03:47;;;;;;;26.47;11.67;;;;;;;18.82;100.00;101589.97;4999052;28;20253;-55
2022/10/13 04:06:13;;;;;;;28.48;11.55;;;;;;;18.82;100.00;101594.53;5011227;28;20273;-52
2022/10/13 04:08:39;;;;;;;25.80;11.88;;;;;;;19.01;100.00;101573.63;4995984;28;20031;-52
2022/10/13 04:11:09;;;;;;;22.27;11.32;;;;;;;19.17;100.00;101574.81;5017060;28;20047;-47
2022/10/13 04:13:36;;;;;;;23.60;11.90;;;;;;;19.54;100.00;101549.34;5006957;28;20042;-51
2022/10/13 04:16:04;;;;;;;26.25;11.68;;;;;;;19.29;100.00;101569.41;5010703;28;20312;-53
2022/10/13 04:18:30;;;;;;;26.53;12.27;;;;;;;18.53;100.00;101588.94;4994180;28;20031;-49
2022/10/13 04:20:55;;;;;;;21.60;11.13;;;;;;;18.72;100.00;101581.56;5005147;28;20297;-50
2022/10/13 04:23:21;;;;;;;28.80;12.87;;;;;;;18.61;100.00;101581.31;5010374;28;20268;-49
2022/10/13 04:25:47;;;;;;;29.65;13.25;;;;;;;18.56;100.00;101569.50;5007479;28;20301;-52
2022/10/13 04:28:13;;;;;;;31.42;13.70;;;;;;;18.41;100.00;101551.78;5006802;28;20043;-53
2022/10/13 04:30:38;;;;;;;21.43;11.97;;;;;;;18.62;100.00;101545.03;5010178;28;20042;-51
2022/10/13 04:33:04;;;;;;;27.70;12.53;;;;;;;18.48;100.00;101549.00;5004354;28;20046;-52
2022/10/13 04:35:29;;;;;;;26.83;12.98;;;;;;;18.72;100.00;101547.19;5006190;28;20026;-51
2022/10/13 04:37:58;;;;;;;26.40;13.82;;;;;;;18.61;100.00;101561.50;5010641;28;20035;-50
2022/10/13 04:40:24;;;;;;;33.50;14.30;;;;;;;18.72;100.00;101560.72;5011351;28;20040;-51
2022/10/13 04:42:50;;;;;;;30.87;14.13;;;;;;;18.72;100.00;101554.47;5003868;28;20276;-49
2022/10/13 04:45:16;;;;;;;26.83;12.43;;;;;;;18.49;100.00;101562.31;5018062;28;20297;-52
2022/10/13 04:47:47;;;;;;;26.63;13.57;;;;;;;18.32;100.00;101550.47;5006208;28;20094;-52
2022/10/13 04:50:15;;;;;;;24.60;13.10;;;;;;;18.41;100.00;101554.50;5008342;28;20296;-51
2022/10/13 04:52:40;;;;;;;30.08;12.70;;;;;;;18.60;100.00;101540.91;5012354;28;21198;-52
2022/10/13 04:55:06;;;;;;;29.23;12.93;;;;;;;18.53;100.00;101543.69;5004692;28;20046;-52
2022/10/13 04:57:31;;;;;;;33.97;12.63;;;;;;;18.56;100.00;101555.97;5007646;28;20035;-49
2022/10/13 04:59:57;;;;;;;29.45;14.30;;;;;;;18.58;100.00;101548.44;5008068;28;20099;-50
2022/10/13 05:02:22;;;;;;;36.37;17.47;;;;;;;18.30;100.00;101560.72;5015187;28;20055;-53
2022/10/13 05:04:48;;;;;;;37.15;19.73;;;;;;;18.46;100.00;101570.91;5009285;28;20114;-52
2022/10/13 05:07:14;;;;;;;38.53;20.92;;;;;;;18.35;100.00;101577.09;5011295;28;20038;-54
2022/10/13 05:09:40;;;;;;;39.55;18.17;;;;;;;18.37;100.00;101580.41;5001053;28;20034;-53
2022/10/13 05:12:09;;;;;;;32.37;15.07;;;;;;;18.46;100.00;101584.44;5001988;28;20462;-54
2022/10/13 05:14:34;;;;;;;26.90;12.63;;;;;;;18.37;100.00;101583.09;5004641;28;20292;-53
2022/10/13 05:17:01;;;;;;;30.00;12.18;;;;;;;18.28;100.00;101566.34;5010222;28;20272;-51
2022/10/13 05:19:27;;;;;;;23.42;12.70;;;;;;;18.13;100.00;101577.59;5008609;28;20051;-50
2022/10/13 05:21:54;;;;;;;31.57;15.63;;;;;;;18.38;100.00;101571.22;5001042;28;20033;-51
2022/10/13 05:24:29;;;;;;;35.27;15.07;;;;;;;18.46;100.00;101562.78;5003424;28;20346;-48
2022/10/13 05:26:56;;;;;;;30.80;15.87;;;;;;;18.87;100.00;101562.97;5004920;28;20035;-54
2022/10/13 05:29:22;;;;;;;39.37;17.80;;;;;;;18.82;100.00;101567.44;5000243;28;20288;-48
2022/10/13 05:31:47;;;;;;;33.70;16.33;;;;;;;18.85;100.00;101566.97;5008443;28;20269;-50
2022/10/13 05:34:13;;;;;;;35.57;14.60;;;;;;;18.86;100.00;101576.75;5004372;28;20276;-54
2022/10/13 05:36:38;;;;;;;25.85;12.32;;;;;;;19.25;100.00;101562.78;5003051;28;20304;-52
2022/10/13 05:39:06;;;;;;;21.60;10.88;;;;;;;19.14;100.00;101556.28;5002889;28;20042;-52
2022/10/13 05:41:32;;;;;;;24.00;11.93;;;;;;;19.57;100.00;101563.22;5004073;28;20126;-52
2022/10/13 05:44:01;;;;;;;22.77;11.70;;;;;;;19.51;100.00;101575.03;5012363;28;20329;-52
2022/10/13 05:46:27;;;;;;;23.10;11.17;;;;;;;19.10;100.00;101571.38;5005507;28;20041;-51
2022/10/13 05:48:53;;;;;;;26.42;11.07;;;;;;;19.22;100.00;101572.22;5004899;28;20285;-52
2022/10/13 05:51:32;;;;;;;24.70;11.60;;;;;;;19.65;100.00;101562.03;4997704;28;20051;-50
2022/10/13 05:54:09;;;;;;;26.80;12.07;;;;;;;19.84;100.00;101553.75;5007859;28;20062;-51
2022/10/13 05:56:40;;;;;;;30.10;11.98;;;;;;;19.63;100.00;101543.31;4997636;28;20282;-51
2022/10/13 05:59:09;;;;;;;28.93;12.33;;;;;;;19.27;100.00;101557.97;5014609;28;20036;-51
2022/10/13 06:01:39;;;;;;;27.77;11.07;;;;;;;18.98;100.00;101557.78;5003009;28;20265;-52
2022/10/13 06:04:11;;;;;;;24.67;11.90;;;;;;;18.94;100.00;101553.91;5007315;28;20273;-48
2022/10/13 06:06:38;;;;;;;23.63;11.50;;;;;;;19.12;100.00;101544.88;5013584;28;20285;-51
2022/10/13 06:09:04;;;;;;;24.80;11.20;;;;;;;19.23;100.00;101554.91;5007195;28;20279;-48
2022/10/13 06:11:30;;;;;;;23.50;11.25;;;;;;;19.12;100.00;101563.84;5010007;28;20280;-50
2022/10/13 06:13:56;;;;;;;28.20;13.05;;;;;;;18.85;100.00;101556.13;5005743;28;20038;-52
2022/10/13 06:16:21;;;;;;;24.90;11.60;;;;;;;19.01;100.00;101547.34;4994736;28;20125;-50
2022/10/13 06:18:47;;;;;;;27.00;12.40;;;;;;;18.96;100.00;101536.38;5004781;28;20063;-53
2022/10/13 06:21:12;;;;;;;28.35;12.95;;;;;;;19.12;100.00;101536.72;5000795;28;20043;-52
2022/10/13 06:23:38;;;;;;;25.63;12.87;;;;;;;19.08;100.00;101535.56;5008910;28;20034;-53
2022/10/13 06:26:05;;;;;;;24.05;12.05;;;;;;;19.25;100.00;101525.66;5011046;28;20311;-50
2022/10/13 06:28:32;;;;;;;32.80;14.17;;;;;;;18.87;100.00;101535.03;5000534;28;20035;-51
2022/10/13 06:30:58;;;;;;;41.65;18.10;;;;;;;18.71;100.00;101528.44;4994834;28;20335;-53
2022/10/13 06:33:23;;;;;;;38.20;15.68;;;;;;;18.81;100.00;101533.28;5016824;28;20128;-54
2022/10/13 06:35:51;;;;;;;30.87;14.83;;;;;;;18.94;100.00;101526.81;4999653;28;20027;-52
2022/10/13 06:38:17;;;;;;;36.77;15.00;;;;;;;18.63;100.00;101530.44;5002580;28;20284;-51
2022/10/13 06:40:46;;;;;;;27.30;14.47;;;;;;;19.23;100.00;101532.38;5010105;28;20268;-53
2022/10/13 06:43:12;;;;;;;39.38;15.90;;;;;;;19.31;100.00;101535.53;5000376;28;20269;-51
2022/10/13 06:45:40;;;;;;;33.10;15.20;;;;;;;19.30;100.00;101531.19;5019833;28;20026;-54
2022/10/13 06:48:06;;;;;;;33.70;15.05;;;;;;;19.12;100.00;101528.59;4998745;28;20257;-50
2022/10/13 06:50:32;;;;;;;37.97;17.23;;;;;;;18.67;100.00;101533.47;5012941;28;20048;-50
2022/10/13 06:52:57;;;;;;;47.92;19.95;;;;;;;18.62;100.00;101536.06;5007454;28;20052;-48
2022/10/13 06:55:23;;;;;;;45.20;19.83;;;;;;;18.33;100.00;101541.31;5007747;28;20031;-49
2022/10/13 06:57:48;;;;;;;37.67;17.63;;;;;;;18.42;100.00;101534.50;4997806;28;20045;-50
2022/10/13 07:00:14;;;;;;;42.83;17.50;;;;;;;18.63;100.00;101535.00;5003746;28;20043;-53
2022/10/13 07:02:40;;;;;;;39.20;20.33;;;;;;;18.62;100.00;101536.91;5002431;28;20050;-52
2022/10/13 07:05:06;;;;;;;51.17;21.73;;;;;;;18.49;100.00;101543.34;5006498;28;20031;-51
2022/10/13 07:07:32;;;;;;;51.72;26.15;;;;;;;18.85;100.00;101542.59;5011934;28;20055;-52
2022/10/13 07:09:57;;;;;;;48.10;25.07;;;;;;;19.17;100.00;101543.09;4999907;28;20035;-55
2022/10/13 07:12:23;;;;;;;51.08;25.83;;;;;;;18.74;100.00;101541.50;5013240;28;20047;-53
2022/10/13 07:14:48;;;;;;;46.80;23.95;;;;;;;18.89;100.00;101543.75;5005242;28;20027;-50
2022/10/13 07:17:14;;;;;;;49.88;21.83;;;;;;;18.47;100.00;101539.22;4999881;28;20038;-52
2022/10/13 07:19:40;;;;;;;51.78;22.15;;;;;;;18.48;100.00;101544.41;5013667;28;20073;-54
2022/10/13 07:22:06;;;;;;;46.78;21.27;;;;;;;18.76;100.00;101539.38;5000952;28;20045;-52
2022/10/13 07:24:31;;;;;;;47.47;20.43;;;;;;;18.74;100.00;101547.78;5007094;28;20052;-53
2022/10/13 07:26:57;;;;;;;53.90;27.17;;;;;;;18.29;100.00;101540.91;4994044;28;20268;-52
2022/10/13 07:29:23;;;;;;;60.33;28.92;;;;;;;18.77;100.00;101539.16;5006482;28;20310;-55
2022/10/13 07:31:49;;;;;;;65.05;31.17;;;;;;;19.18;100.00;101533.09;5009627;28;20059;-52
2022/10/13 07:34:14;;;;;;;67.03;30.90;;;;;;;19.18;100.00;101538.53;5005424;28;20039;-50
2022/10/13 07:36:41;;;;;;;68.18;31.63;;;;;;;19.20;100.00;101536.41;4993503;28;20296;-52
2022/10/13 07:39:08;;;;;;;69.88;33.15;;;;;;;19.29;100.00;101537.66;5008989;28;20060;-53
2022/10/13 07:41:35;;;;;;;48.97;25.03;;;;;;;19.08;100.00;101535.56;5002714;28;20046;-54
2022/10/13 07:44:01;;;;;;;64.35;26.40;;;;;;;19.60;100.00;101543.75;5008861;28;20281;-50
2022/10/13 07:46:26;;;;;;;46.70;21.40;;;;;;;19.88;100.00;101535.91;5012185;28;20049;-50
2022/10/13 07:48:52;;;;;;;55.57;22.93;;;;;;;19.77;100.00;101537.59;5010566;28;20071;-49
2022/10/13 07:51:20;;;;;;;43.23;19.33;;;;;;;19.76;100.00;101536.78;5002258;28;20035;-53
2022/10/13 07:53:47;;;;;;;41.83;20.17;;;;;;;19.83;100.00;101541.25;5009052;28;20312;-53
2022/10/13 07:56:14;;;;;;;44.20;18.10;;;;;;;19.79;100.00;101540.88;5007288;28;20272;-50
2022/10/13 07:58:45;;;;;;;41.50;18.53;;;;;;;19.94;100.00;101545.00;5007599;28;20268;-52
2022/10/13 08:01:12;;;;;;;44.17;18.40;;;;;;;19.68;100.00;101534.41;5011930;28;20269;-51
2022/10/13 08:03:39;;;;;;;34.20;17.17;;;;;;;19.88;100.00;101539.44;5006065;28;20279;-52
2022/10/13 08:06:06;;;;;;;43.80;18.47;;;;;;;19.85;100.00;101534.50;5008494;28;20299;-50
2022/10/13 08:08:32;;;;;;;44.50;17.27;;;;;;;20.06;100.00;101538.47;5005865;28;20276;-55
2022/10/13 08:11:07;;;;;;;48.72;19.23;;;;;;;20.33;100.00;101537.06;5012647;28;20298;-51
2022/10/13 08:13:32;;;;;;;37.43;16.80;;;;;;;20.25;100.00;101540.16;5006310;28;20143;-52
2022/10/13 08:16:06;;;;;;;36.27;16.67;;;;;;;19.69;100.00;101543.41;5006037;28;20280;-52
2022/10/13 08:18:32;;;;;;;33.42;16.52;;;;;;;19.56;100.00;101539.06;5010283;28;20279;-49
2022/10/13 08:21:01;;;;;;;36.67;16.52;;;;;;;19.08;100.00;101541.81;5012808;28;20049;-48
2022/10/13 08:23:28;;;;;;;43.97;17.77;;;;;;;19.31;100.00;101546.41;5002298;28;20046;-53
2022/10/13 08:25:54;;;;;;;35.92;17.65;;;;;;;19.66;100.00;101535.75;5013431;28;20268;-56
2022/10/13 08:28:23;;;;;;;39.92;17.23;;;;;;;19.48;100.00;101529.41;5008375;28;20135;-54
2022/10/13 08:30:50;;;;;;;44.63;17.70;;;;;;;19.59;100.00;101547.53;5002634;28;20050;-51
2022/10/13 08:33:16;;;;;;;53.93;25.63;;;;;;;19.29;100.00;101537.66;5014743;28;20277;-52
2022/10/13 08:35:42;;;;;;;53.70;25.23;;;;;;;19.76;100.00;101531.34;5012373;28;20279;-53
2022/10/13 08:38:08;;;;;;;55.95;24.73;;;;;;;19.82;100.00;101543.09;5000086;28;20038;-50
2022/10/13 08:40:34;;;;;;;47.58;25.42;;;;;;;19.33;100.00;101535.31;5018968;28;20035;-53
2022/10/13 08:43:03;;;;;;;46.22;19.35;;;;;;;19.21;100.00;101535.34;5003423;28;20033;-54
2022/10/13 08:45:30;;;;;;;41.73;19.83;;;;;;;19.47;100.00;101534.00;5003741;28;20072;-51
2022/10/13 08:48:04;;;;;;;45.30;20.33;;;;;;;19.75;100.00;101532.41;5006728;28;20273;-52
2022/10/13 08:50:38;;;;;;;46.00;21.97;;;;;;;19.90;100.00;101536.47;5006237;28;20048;-51
2022/10/13 08:53:17;;;;;;;42.30;18.80;;;;;;;19.77;100.00;101532.16;4994342;28;20292;-50
2022/10/13 08:55:49;;;;;;;47.63;20.07;;;;;;;20.29;100.00;101534.00;5009864;28;20315;-51
2022/10/13 08:58:25;;;;;;;48.97;20.90;;;;;;;20.45;100.00;101526.94;5003319;28;20297;-51
2022/10/13 09:01:09;;;;;;;34.80;18.95;;;;;;;20.49;100.00;101528.09;5014096;28;20280;-49
2022/10/13 09:04:07;;;;;;;38.93;19.07;;;;;;;20.26;100.00;101522.78;4999473;28;20187;-50
2022/10/13 09:06:38;;;;;;;38.80;19.30;;;;;;;20.54;100.00;101526.56;5007786;28;20280;-51
2022/10/13 09:09:11;;;;;;;30.57;16.03;;;;;;;20.40;100.00;101526.84;5010856;28;20265;-51
2022/10/13 09:11:40;;;;;;;34.33;15.63;;;;;;;20.31;100.00;101522.91;4999597;28;20268;-52
2022/10/13 09:14:08;;;;;;;40.00;15.47;;;;;;;20.18;100.00;101521.28;5013878;28;20288;-56
2022/10/13 09:16:44;;;;;;;25.43;14.03;;;;;;;20.10;100.00;101529.84;4999129;28;20271;-49
2022/10/13 09:19:24;;;;;;;32.95;14.55;;;;;;;20.42;100.00;101530.16;5016106;28;20333;-50
2022/10/13 09:21:53;;;;;;;32.10;14.60;;;;;;;21.00;100.00;101527.31;5006465;28;20046;-50
2022/10/13 09:24:20;;;;;;;41.80;15.70;;;;;;;20.96;100.00;101528.06;5003912;28;20335;-51
2022/10/13 09:26:48;;;;;;;25.23;13.53;;;;;;;20.99;100.00;101531.09;5006699;28;20272;-51
2022/10/13 09:29:24;;;;;;;29.23;14.57;;;;;;;20.68;100.00;101530.56;5005659;28;20293;-53
2022/10/13 09:31:53;;;;;;;31.63;14.17;;;;;;;21.01;100.00;101530.84;5008963;28;20295;-52
2022/10/13 09:34:18;;;;;;;28.17;14.43;;;;;;;21.01;100.00;101520.81;5012560;28;20268;-55
2022/10/13 09:36:56;;;;;;;30.92;15.32;;;;;;;21.17;100.00;101524.56;5012909;28;20299;-51
2022/10/13 09:39:22;;;;;;;37.77;15.43;;;;;;;21.18;100.00;101517.19;4998880;28;20074;-50
2022/10/13 09:41:47;;;;;;;31.20;15.65;;;;;;;21.01;100.00;101517.25;5006410;28;20269;-50
2022/10/13 09:44:18;;;;;;;27.90;13.85;;;;;;;21.21;100.00;101511.25;5001017;28;20050;-56
2022/10/13 09:46:46;;;;;;;35.33;13.90;;;;;;;20.92;100.00;101503.25;4999884;28;20035;-49
2022/10/13 09:49:37;;;;;;;31.33;14.47;;;;;;;20.80;100.00;101518.84;5005601;28;20292;-50
2022/10/13 09:52:12;;;;;;;28.97;13.13;;;;;;;20.62;100.00;101517.97;5003483;28;20292;-53
2022/10/13 09:54:52;;;;;;;27.70;13.50;;;;;;;20.78;100.00;101522.59;5007588;28;20272;-51
2022/10/13 09:57:45;;;;;;;25.23;13.37;;;;;;;20.81;100.00;101515.84;5005093;28;20265;-48
2022/10/13 10:00:23;;;;;;;29.17;13.10;;;;;;;21.22;100.00;101507.50;5001309;28;20303;-52
2022/10/13 10:03:14;;;;;;;30.53;15.50;;;;;;;20.99;100.00;101512.06;5003437;28;20269;-55
2022/10/13 10:06:15;;;;;;;36.30;14.00;;;;;;;21.02;100.00;101497.97;4999480;28;20264;-53
2022/10/13 10:09:04;;;;;;;30.20;13.47;;;;;;;20.87;100.00;101497.75;4998175;28;20299;-50
2022/10/13 10:11:38;;;;;;;31.17;13.00;;;;;;;20.72;100.00;101509.97;4999168;28;20287;-53
2022/10/13 10:14:29;;;;;;;27.43;13.47;;;;;;;20.86;100.00;101496.91;5013198;28;20292;-52
2022/10/13 10:17:11;;;;;;;31.97;14.13;;;;;;;21.19;100.00;101492.50;4999409;28;20272;-52
2022/10/13 10:20:02;;;;;;;38.67;14.13;;;;;;;21.00;100.00;101500.13;5009317;28;20276;-51
2022/10/13 10:22:55;;;;;;;27.97;13.43;;;;;;;21.10;100.00;101495.88;5000869;28;20275;-55
2022/10/13 10:25:38;;;;;;;35.57;14.40;;;;;;;20.85;100.00;101497.16;4994208;28;22396;-50
2022/10/13 10:28:24;;;;;;;34.57;14.27;;;;;;;20.87;100.00;101501.25;5010288;28;20273;-54
2022/10/13 10:31:05;;;;;;;30.97;14.77;;;;;;;21.22;100.00;101502.06;4993396;28;20316;-50
2022/10/13 10:33:50;;;;;;;27.57;13.97;;;;;;;20.16;100.00;101497.09;4994797;28;20296;-50
2022/10/13 10:36:26;;;;;;;37.73;15.20;;;;;;;20.18;100.00;101494.13;5003200;28;20273;-54
2022/10/13 10:39:25;;;;;;;36.40;14.73;;;;;;;20.04;100.00;101494.44;5001275;28;20287;-53
2022/10/13 10:42:16;;;;;;;30.17;15.67;;;;;;;20.34;100.00;101496.06;5013529;28;20288;-51
2022/10/13 10:44:46;;;;;;;32.17;15.13;;;;;;;20.00;100.00;101495.16;5001371;28;20272;-50
2022/10/13 10:47:24;;;;;;;43.73;17.47;;;;;;;20.08;100.00;101502.09;5004800;28;20301;-53
2022/10/13 10:50:02;;;;;;;38.97;18.57;;;;;;;20.01;100.00;101502.25;5005304;28;20273;-55
2022/10/13 10:52:43;;;;;;;41.60;19.40;;;;;;;19.68;100.00;101507.28;5000294;28;20363;-53
2022/10/13 10:55:40;;;;;;;38.03;17.90;;;;;;;19.40;100.00;101492.63;4996506;28;20276;-50
2022/10/13 10:58:47;;;;;;;49.97;21.27;;;;;;;19.28;100.00;101503.47;5002021;28;20639;-54
2022/10/13 11:01:30;;;;;;;46.17;21.03;;;;;;;19.04;100.00;101492.66;4994074;28;20364;-50
2022/10/13 11:04:17;;;;;;;44.97;21.30;;;;;;;19.01;100.00;101478.75;5006936;28;20334;-53
2022/10/13 11:06:43;;;;;;;49.73;24.13;;;;;;;19.56;100.00;101487.53;4999115;28;20351;-53
2022/10/13 11:09:10;;;;;;;57.58;24.45;;;;;;;19.40;100.00;101481.78;5014679;28;20277;-52
2022/10/13 11:11:41;;;;;;;48.00;21.37;;;;;;;19.32;100.00;101476.72;5000405;28;20062;-54
2022/10/13 11:14:10;;;;;;;50.17;23.37;;;;;;;19.28;100.00;101470.94;5003041;28;20296;-50
2022/10/13 11:16:58;;;;;;;58.80;25.70;;;;;;;19.19;100.00;101465.06;5005784;28;20268;-52